Time;durP1;ratioP1;P1;durP2;ratioP2;P2;SDS_P1;SDS_P2;PMS_P1;PMS_P2;Temp;Humidity;BMP_temperature;BMP_pressure;BME280_temperature;BME280_humidity;BME280_pressure;Samples;Min_cycle;Max_cycle;Signal;HPM_P1;HPM_P2
2020/12/16 00:02:11;0.00;0.00;0.62;0.00;0.00;0.62;2.17;1.00;;;22.60;30.50;;;;;;2241493;62;20394;-61
2020/12/16 00:04:56;0.00;0.00;0.62;0.00;0.00;0.62;1.20;0.80;;;22.60;30.60;;;;;;2241702;62;20382;-61
2020/12/16 00:07:40;0.00;0.00;0.62;0.00;0.00;0.62;1.10;0.80;;;22.60;30.60;;;;;;2241480;62;20370;-61
2020/12/16 00:10:25;0.00;0.00;0.62;0.00;0.00;0.62;1.87;0.93;;;22.60;30.60;;;;;;2241405;62;20654;-61
2020/12/16 00:13:10;0.00;0.00;0.62;0.00;0.00;0.62;1.23;0.90;;;22.60;30.60;;;;;;2241348;62;20770;-61
2020/12/16 00:15:55;0.00;0.00;0.62;0.00;0.00;0.62;1.47;1.03;;;22.60;30.60;;;;;;2241636;62;20806;-61
2020/12/16 00:18:40;0.00;0.00;0.62;0.00;0.00;0.62;1.57;1.10;;;22.60;30.60;;;;;;2241288;62;20453;-62
2020/12/16 00:21:24;0.00;0.00;0.62;0.00;0.00;0.62;1.60;0.93;;;22.60;30.60;;;;;;2241431;62;20370;-61
2020/12/16 00:24:09;0.00;0.00;0.62;0.00;0.00;0.62;1.00;0.80;;;22.60;30.60;;;;;;2241302;62;20363;-61
2020/12/16 00:26:53;0.00;0.00;0.62;0.00;0.00;0.62;1.17;1.00;;;22.60;31.30;;;;;;2241751;62;20381;-61
2020/12/16 00:29:39;0.00;0.00;0.62;0.00;0.00;0.62;2.03;1.67;;;22.60;30.60;;;;;;2241421;62;20355;-61
2020/12/16 00:32:24;0.00;0.00;0.62;0.00;0.00;0.62;1.20;0.90;;;22.70;30.70;;;;;;2241352;62;20480;-61
2020/12/16 00:35:09;0.00;0.00;0.62;0.00;0.00;0.62;1.20;0.90;;;22.60;30.60;;;;;;2241221;61;20422;-61
2020/12/16 00:37:53;0.00;0.00;0.62;0.00;0.00;0.62;1.23;0.90;;;22.60;30.60;;;;;;2241628;62;20480;-61
2020/12/16 00:40:39;0.00;0.00;0.62;0.00;0.00;0.62;1.20;0.97;;;22.60;30.60;;;;;;2241414;62;20364;-62
2020/12/16 00:43:24;0.00;0.00;0.62;0.00;0.00;0.62;1.20;1.00;;;22.60;30.60;;;;;;2241159;62;20582;-61
2020/12/16 00:46:09;0.00;0.00;0.62;0.00;0.00;0.62;1.20;0.90;;;22.60;30.60;;;;;;2241265;62;20382;-61
2020/12/16 00:48:54;0.00;0.00;0.62;0.00;0.00;0.62;1.17;0.90;;;22.70;30.70;;;;;;2243722;61;20438;-62
2020/12/16 00:51:39;0.00;0.00;0.62;0.00;0.00;0.62;1.10;0.80;;;22.70;30.80;;;;;;2245328;61;20618;-61
2020/12/16 00:54:23;0.00;0.00;0.62;0.00;0.00;0.62;1.40;1.10;;;22.70;30.70;;;;;;2242032;61;20426;-62
2020/12/16 00:57:08;0.00;0.00;0.62;0.00;0.00;0.62;1.40;0.97;;;22.70;30.80;;;;;;2245163;61;20389;-61
2020/12/16 00:59:53;0.00;0.00;0.62;0.00;0.00;0.62;1.83;0.90;;;22.70;30.90;;;;;;2245150;61;20754;-61
2020/12/16 01:02:40;0.00;0.00;0.62;0.00;0.00;0.62;1.50;1.00;;;22.70;30.90;;;;;;2244901;61;20593;-62
2020/12/16 01:05:25;0.00;0.00;0.62;0.00;0.00;0.62;1.20;0.90;;;22.70;30.90;;;;;;2244816;61;20721;-61
2020/12/16 01:08:10;0.00;0.00;0.62;0.00;0.00;0.62;1.20;1.00;;;22.70;30.90;;;;;;2245302;61;20420;-61
2020/12/16 01:10:57;0.00;0.00;0.62;0.00;0.00;0.62;1.47;1.00;;;22.70;31.50;;;;;;2245338;61;20369;-61
2020/12/16 01:13:43;0.00;0.00;0.62;0.00;0.00;0.62;1.20;0.97;;;22.70;30.90;;;;;;2244940;61;20358;-62
2020/12/16 01:16:35;0.00;0.00;0.62;0.00;0.00;0.62;1.30;1.00;;;22.70;31.00;;;;;;2244967;61;20720;-63
2020/12/16 01:19:21;0.00;0.00;0.62;0.00;0.00;0.62;1.30;1.10;;;22.70;31.00;;;;;;2245179;61;20421;-65
2020/12/16 01:22:07;0.00;0.00;0.62;0.00;0.00;0.62;1.30;0.97;;;22.70;31.00;;;;;;2245217;61;20370;-64
2020/12/16 01:24:51;0.00;0.00;0.62;0.00;0.00;0.62;1.20;0.80;;;22.70;31.00;;;;;;2244752;61;20436;-64
2020/12/16 01:27:36;0.00;0.00;0.62;0.00;0.00;0.62;1.27;1.03;;;22.70;31.00;;;;;;2244987;61;20508;-63
2020/12/16 01:30:21;0.00;0.00;0.62;0.00;0.00;0.62;1.33;0.97;;;22.70;31.00;;;;;;2244960;61;20656;-63
2020/12/16 01:33:06;0.00;0.00;0.62;0.00;0.00;0.62;1.50;1.20;;;22.70;31.00;;;;;;2242433;61;20406;-62
2020/12/16 01:35:53;0.00;0.00;0.62;0.00;0.00;0.62;1.50;1.30;;;22.70;31.00;;;;;;2244746;61;20378;-61
2020/12/16 01:38:39;0.00;0.00;0.62;0.00;0.00;0.62;2.37;2.17;;;22.70;31.00;;;;;;2244523;61;20389;-63
2020/12/16 01:41:24;0.00;0.00;0.62;0.00;0.00;0.62;2.50;2.20;;;22.80;31.10;;;;;;2244970;61;20361;-64
2020/12/16 01:44:14;0.00;0.00;0.62;0.00;0.00;0.62;3.90;3.30;;;22.80;31.10;;;;;;2245480;61;20775;-65
2020/12/16 01:47:02;0.00;0.00;0.62;0.00;0.00;0.62;3.83;3.37;;;22.80;31.10;;;;;;2244778;61;20394;-62
2020/12/16 01:49:58;0.00;0.00;0.62;0.00;0.00;0.62;3.93;3.53;;;22.80;31.10;;;;;;2244614;61;20362;-61
2020/12/16 01:52:46;0.00;0.00;0.62;0.00;0.00;0.62;4.03;3.63;;;22.80;31.10;;;;;;2245258;61;20398;-62
2020/12/16 01:55:34;0.00;0.00;0.62;0.00;0.00;0.62;5.57;4.70;;;22.80;31.00;;;;;;2244832;61;20394;-62
2020/12/16 01:58:31;0.00;0.00;0.62;0.00;0.00;0.62;4.47;2.97;;;22.80;30.90;;;;;;2244791;61;20430;-61
2020/12/16 02:01:21;0.00;0.00;0.62;0.00;0.00;0.62;5.13;4.43;;;22.70;30.80;;;;;;2245244;61;20370;-63
2020/12/16 02:04:08;0.00;0.00;0.62;0.00;0.00;0.62;6.00;5.50;;;22.70;30.80;;;;;;2244760;61;20358;-62
2020/12/16 02:06:58;0.00;0.00;0.62;0.00;0.00;0.62;5.90;5.30;;;22.70;30.80;;;;;;2245203;61;20362;-62
2020/12/16 02:09:47;0.00;0.00;0.62;0.00;0.00;0.62;6.80;6.10;;;22.70;30.70;;;;;;2242454;61;20427;-61
2020/12/16 02:12:36;0.00;0.00;0.62;0.00;0.00;0.62;7.60;6.90;;;22.70;30.70;;;;;;2244852;61;20644;-62
2020/12/16 02:15:21;0.00;0.00;0.62;0.00;0.00;0.62;5.93;5.33;;;22.70;30.60;;;;;;2242301;61;20449;-62
2020/12/16 02:18:08;0.00;0.00;0.62;0.00;0.00;0.62;8.30;6.27;;;22.70;30.60;;;;;;2245008;61;20414;-62
2020/12/16 02:20:53;0.00;0.00;0.62;0.00;0.00;0.62;7.87;6.83;;;22.60;30.60;;;;;;2244951;61;20378;-62
2020/12/16 02:23:42;0.00;0.00;0.62;0.00;0.00;0.62;6.10;5.50;;;22.60;30.60;;;;;;2245018;61;20410;-60
2020/12/16 02:26:30;0.00;0.00;0.62;0.00;0.00;0.62;7.67;6.33;;;22.60;30.70;;;;;;2244868;61;20396;-62
2020/12/16 02:29:24;0.00;0.00;0.62;0.00;0.00;0.62;6.23;4.93;;;22.50;30.60;;;;;;2245495;61;20467;-62
2020/12/16 02:32:14;0.00;0.00;0.62;0.00;0.00;0.62;6.90;6.10;;;22.50;30.60;;;;;;2245125;61;20365;-61
2020/12/16 02:34:59;0.00;0.00;0.62;0.00;0.00;0.62;6.83;6.23;;;22.50;30.60;;;;;;2244682;61;20386;-61
2020/12/16 02:37:44;0.00;0.00;0.62;0.00;0.00;0.62;7.93;6.30;;;22.50;30.70;;;;;;2245031;61;20369;-62
2020/12/16 02:40:28;0.00;0.00;0.62;0.00;0.00;0.62;6.00;5.27;;;22.50;30.70;;;;;;2245066;61;20437;-62
2020/12/16 02:43:14;0.00;0.00;0.62;0.00;0.00;0.62;11.10;7.07;;;22.40;30.60;;;;;;2244812;61;20738;-62
2020/12/16 02:46:01;0.00;0.00;0.62;0.00;0.00;0.62;7.87;5.87;;;22.40;30.60;;;;;;2245052;61;20397;-62
2020/12/16 02:48:46;0.00;0.00;0.62;0.00;0.00;0.62;9.20;7.20;;;22.40;30.60;;;;;;2242118;61;20358;-61
2020/12/16 02:51:32;0.00;0.00;0.62;0.00;0.00;0.62;9.67;6.80;;;22.40;30.60;;;;;;2245146;61;20406;-62
2020/12/16 02:54:17;0.00;0.00;0.62;0.00;0.00;0.62;7.37;6.67;;;22.40;30.60;;;;;;2245309;61;20589;-62
2020/12/16 02:57:21;0.00;0.00;0.62;0.00;0.00;0.62;7.17;6.43;;;22.30;30.60;;;;;;2245177;61;20389;-61
2020/12/16 03:00:10;0.00;0.00;0.62;0.00;0.00;0.62;7.07;6.37;;;22.30;30.60;;;;;;2245632;61;20393;-62
2020/12/16 03:03:31;0.00;0.00;0.62;0.00;0.00;0.62;7.20;6.43;;;22.30;30.70;;;;;;2244141;61;20394;-62
2020/12/16 03:06:46;0.00;0.00;0.62;0.00;0.00;0.62;6.93;6.23;;;22.30;30.70;;;;;;2246134;61;20410;-62
2020/12/16 03:09:34;0.00;0.00;0.62;0.00;0.00;0.62;6.90;5.80;;;22.20;30.60;;;;;;2246121;61;20584;-61
2020/12/16 03:12:19;0.00;0.00;0.62;0.00;0.00;0.62;8.07;6.90;;;22.20;30.70;;;;;;2242711;61;20382;-61
2020/12/16 03:15:08;0.00;0.00;0.62;0.00;0.00;0.62;8.00;7.20;;;22.20;30.70;;;;;;2242724;61;20782;-61
2020/12/16 03:17:54;0.00;0.00;0.62;0.00;0.00;0.62;7.47;6.50;;;22.20;30.70;;;;;;2245585;61;20401;-61
2020/12/16 03:20:39;0.00;0.00;0.62;0.00;0.00;0.62;8.20;7.40;;;22.20;30.70;;;;;;2245690;61;20467;-62
2020/12/16 03:23:24;0.00;0.00;0.62;0.00;0.00;0.62;8.80;6.30;;;22.20;30.70;;;;;;2245589;61;20398;-61
2020/12/16 03:26:32;0.00;0.00;0.62;0.00;0.00;0.62;8.10;7.10;;;22.10;30.70;;;;;;2245426;61;20397;-62
2020/12/16 03:29:32;0.00;0.00;0.62;0.00;0.00;0.62;8.00;7.20;;;22.10;30.70;;;;;;2242987;61;20362;-62
2020/12/16 03:32:28;0.00;0.00;0.62;0.00;0.00;0.62;6.70;6.00;;;22.10;30.70;;;;;;2245679;61;20366;-61
2020/12/16 03:35:24;0.00;0.00;0.62;0.00;0.00;0.62;7.33;6.20;;;22.10;30.80;;;;;;2245509;61;20386;-61
2020/12/16 03:38:12;0.00;0.00;0.62;0.00;0.00;0.62;7.97;6.60;;;22.10;30.80;;;;;;2245543;61;20371;-62
2020/12/16 03:41:00;0.00;0.00;0.62;0.00;0.00;0.62;6.73;5.60;;;22.00;30.70;;;;;;2245358;61;20407;-61
2020/12/16 03:43:50;0.00;0.00;0.62;0.00;0.00;0.62;7.23;5.97;;;22.00;30.70;;;;;;2245446;61;20629;-61
2020/12/16 03:46:36;0.00;0.00;0.62;0.00;0.00;0.62;6.70;5.80;;;22.00;30.70;;;;;;2242919;61;20370;-61
2020/12/16 03:49:21;0.00;0.00;0.62;0.00;0.00;0.62;6.90;6.27;;;22.00;30.70;;;;;;2245365;61;20644;-61
2020/12/16 03:52:06;0.00;0.00;0.62;0.00;0.00;0.62;6.30;5.70;;;22.00;31.40;;;;;;2245576;61;20402;-61
2020/12/16 03:54:57;0.00;0.00;0.62;0.00;0.00;0.62;6.63;5.93;;;22.00;31.40;;;;;;2245254;61;20713;-61
2020/12/16 03:58:07;0.00;0.00;0.62;0.00;0.00;0.62;6.80;6.07;;;21.90;30.60;;;;;;2244036;61;20454;-61
2020/12/16 04:01:11;0.00;0.00;0.62;0.00;0.00;0.62;7.07;6.37;;;21.90;30.70;;;;;;2245558;61;20438;-60
2020/12/16 04:03:56;0.00;0.00;0.62;0.00;0.00;0.62;6.93;6.23;;;21.90;30.80;;;;;;2245065;61;20370;-61
2020/12/16 04:06:55;0.00;0.00;0.62;0.00;0.00;0.62;6.40;5.30;;;21.90;31.50;;;;;;2245553;61;20653;-61
2020/12/16 04:09:43;0.00;0.00;0.62;0.00;0.00;0.62;6.53;5.60;;;21.90;30.80;;;;;;2245273;61;20394;-62
2020/12/16 04:12:28;0.00;0.00;0.62;0.00;0.00;0.62;7.03;6.33;;;21.80;30.70;;;;;;2245433;61;20597;-61
2020/12/16 04:15:13;0.00;0.00;0.62;0.00;0.00;0.62;6.10;5.50;;;21.90;30.80;;;;;;2245372;61;20386;-62
2020/12/16 04:17:58;0.00;0.00;0.62;0.00;0.00;0.62;6.50;5.90;;;21.80;30.80;;;;;;2245143;61;20418;-61
2020/12/16 04:20:43;0.00;0.00;0.62;0.00;0.00;0.62;6.50;5.53;;;21.80;30.70;;;;;;2242803;61;20734;-60
2020/12/16 04:23:28;0.00;0.00;0.62;0.00;0.00;0.62;6.90;6.20;;;21.80;30.70;;;;;;2242670;61;20450;-60
2020/12/16 04:26:31;0.00;0.00;0.62;0.00;0.00;0.62;7.30;5.50;;;21.80;30.70;;;;;;2245192;61;20413;-62
2020/12/16 04:29:22;0.00;0.00;0.62;0.00;0.00;0.62;7.50;6.07;;;21.80;30.80;;;;;;2245475;61;20482;-61
2020/12/16 04:32:10;0.00;0.00;0.62;0.00;0.00;0.62;6.87;5.90;;;21.70;30.70;;;;;;2245174;61;20750;-61
2020/12/16 04:34:59;0.00;0.00;0.62;0.00;0.00;0.62;5.77;5.20;;;21.70;30.70;;;;;;2245292;61;20445;-62
2020/12/16 04:37:48;0.00;0.00;0.62;0.00;0.00;0.62;6.43;5.83;;;21.80;30.80;;;;;;2245396;61;20730;-61
2020/12/16 04:40:33;0.00;0.00;0.62;0.00;0.00;0.62;5.60;4.50;;;21.70;30.70;;;;;;2245126;61;20393;-61
2020/12/16 04:43:32;0.00;0.00;0.62;0.00;0.00;0.62;6.30;5.00;;;21.70;30.80;;;;;;2245373;61;20677;-61
2020/12/16 04:46:20;0.00;0.00;0.62;0.00;0.00;0.62;6.57;4.43;;;21.70;30.80;;;;;;2245835;61;20793;-62
2020/12/16 04:49:06;0.00;0.00;0.62;0.00;0.00;0.62;7.80;5.40;;;21.70;30.80;;;;;;2242473;61;20565;-62
2020/12/16 04:51:55;0.00;0.00;0.62;0.00;0.00;0.62;8.47;5.30;;;21.70;30.80;;;;;;2245387;61;20718;-61
2020/12/16 04:54:59;0.00;0.00;0.62;0.00;0.00;0.62;6.67;6.07;;;21.70;30.80;;;;;;2244891;61;20386;-62
2020/12/16 04:57:52;0.00;0.00;0.62;0.00;0.00;0.62;7.50;5.43;;;21.60;30.70;;;;;;2245363;61;20353;-61
2020/12/16 05:00:39;0.00;0.00;0.62;0.00;0.00;0.62;7.60;5.60;;;21.60;30.70;;;;;;2245341;61;20425;-61
2020/12/16 05:03:34;0.00;0.00;0.62;0.00;0.00;0.62;5.83;5.33;;;21.60;30.70;;;;;;2244992;61;20751;-61
2020/12/16 05:06:39;0.00;0.00;0.62;0.00;0.00;0.62;7.43;5.30;;;21.60;30.80;;;;;;2245404;61;20431;-61
2020/12/16 05:09:23;0.00;0.00;0.62;0.00;0.00;0.62;7.73;6.33;;;21.60;30.80;;;;;;2245603;61;20406;-62
2020/12/16 05:12:16;0.00;0.00;0.62;0.00;0.00;0.62;5.80;5.13;;;21.60;30.80;;;;;;2245815;61;20479;-62
2020/12/16 05:15:01;0.00;0.00;0.62;0.00;0.00;0.62;6.83;6.10;;;21.60;31.50;;;;;;2245534;61;20390;-61
2020/12/16 05:18:03;0.00;0.00;0.62;0.00;0.00;0.62;7.07;5.57;;;21.50;30.70;;;;;;2244952;61;20350;-62
2020/12/16 05:20:50;0.00;0.00;0.62;0.00;0.00;0.62;5.50;4.97;;;21.50;30.70;;;;;;2245825;61;20692;-61
2020/12/16 05:23:35;0.00;0.00;0.62;0.00;0.00;0.62;5.50;5.00;;;21.50;30.70;;;;;;2245479;61;20442;-62
2020/12/16 05:26:20;0.00;0.00;0.62;0.00;0.00;0.62;5.37;4.30;;;21.50;30.70;;;;;;2245635;61;20393;-61
2020/12/16 05:29:04;0.00;0.00;0.62;0.00;0.00;0.62;6.53;5.87;;;21.50;30.70;;;;;;2245651;61;20540;-61
2020/12/16 05:31:49;0.00;0.00;0.62;0.00;0.00;0.62;5.83;5.30;;;21.50;30.70;;;;;;2245334;61;20369;-62
2020/12/16 05:34:34;0.00;0.00;0.62;0.00;0.00;0.62;6.60;5.50;;;21.50;30.70;;;;;;2245095;61;20390;-62
2020/12/16 05:37:32;0.00;0.00;0.62;0.00;0.00;0.62;6.90;5.33;;;21.50;30.70;;;;;;2245595;61;20373;-62
2020/12/16 05:40:23;0.00;0.00;0.62;0.00;0.00;0.62;6.93;5.53;;;21.50;30.70;;;;;;2243926;61;20390;-60
2020/12/16 05:43:08;0.00;0.00;0.62;0.00;0.00;0.62;7.13;6.33;;;21.40;30.60;;;;;;2245224;61;20582;-62
2020/12/16 05:45:53;0.00;0.00;0.62;0.00;0.00;0.62;7.23;5.90;;;21.40;30.60;;;;;;2245422;61;20433;-62
2020/12/16 05:48:38;0.00;0.00;0.62;0.00;0.00;0.62;7.00;6.30;;;21.40;30.60;;;;;;2245811;61;20438;-62
2020/12/16 05:51:23;0.00;0.00;0.62;0.00;0.00;0.62;7.23;6.27;;;21.50;30.70;;;;;;2245669;61;20399;-61
2020/12/16 05:54:13;0.00;0.00;0.62;0.00;0.00;0.62;7.90;7.10;;;21.40;30.60;;;;;;2245286;61;20374;-62
2020/12/16 05:57:12;0.00;0.00;0.62;0.00;0.00;0.62;10.13;6.03;;;21.40;30.60;;;;;;2245628;61;20398;-60
2020/12/16 06:00:09;0.00;0.00;0.62;0.00;0.00;0.62;7.03;6.33;;;21.40;30.60;;;;;;2245646;61;20418;-62
2020/12/16 06:03:00;0.00;0.00;0.62;0.00;0.00;0.62;7.70;6.80;;;21.40;30.60;;;;;;2245434;61;20369;-62
2020/12/16 06:05:48;0.00;0.00;0.62;0.00;0.00;0.62;7.50;6.13;;;21.40;30.60;;;;;;2245233;61;20863;-61
2020/12/16 06:08:35;0.00;0.00;0.62;0.00;0.00;0.62;7.80;6.40;;;21.30;30.60;;;;;;2245341;61;20369;-62
2020/12/16 06:11:20;0.00;0.00;0.62;0.00;0.00;0.62;7.47;6.50;;;21.40;30.70;;;;;;2245641;61;20370;-61
2020/12/16 06:14:06;0.00;0.00;0.62;0.00;0.00;0.62;6.97;6.27;;;21.30;30.60;;;;;;2245458;61;20438;-61
2020/12/16 06:17:06;0.00;0.00;0.62;0.00;0.00;0.62;6.20;5.60;;;21.30;30.60;;;;;;2244952;61;20735;-61
2020/12/16 06:19:53;0.00;0.00;0.62;0.00;0.00;0.62;6.67;5.30;;;21.30;30.60;;;;;;2245640;61;20674;-62
2020/12/16 06:22:38;0.00;0.00;0.62;0.00;0.00;0.62;6.63;5.97;;;21.30;30.60;;;;;;2245627;61;20742;-61
2020/12/16 06:25:24;0.00;0.00;0.62;0.00;0.00;0.62;6.53;5.90;;;21.30;30.60;;;;;;2245595;61;20773;-61
2020/12/16 06:28:11;0.00;0.00;0.62;0.00;0.00;0.62;7.40;6.20;;;21.20;30.60;;;;;;2245646;61;20575;-61
2020/12/16 06:31:08;0.00;0.00;0.62;0.00;0.00;0.62;7.07;6.37;;;21.20;30.60;;;;;;2245344;61;20382;-61
2020/12/16 06:33:59;0.00;0.00;0.62;0.00;0.00;0.62;7.33;6.63;;;21.20;31.20;;;;;;2245691;61;20434;-61
2020/12/16 06:36:45;0.00;0.00;0.62;0.00;0.00;0.62;6.90;5.90;;;21.20;30.60;;;;;;2246333;61;20357;-61
2020/12/16 06:39:38;0.00;0.00;0.62;0.00;0.00;0.62;6.97;6.27;;;21.30;31.30;;;;;;2245937;61;20517;-61
2020/12/16 06:42:34;0.00;0.00;0.62;0.00;0.00;0.62;6.50;5.80;;;21.20;30.60;;;;;;2246233;61;20373;-62
2020/12/16 06:45:19;0.00;0.00;0.62;0.00;0.00;0.62;6.87;5.57;;;21.20;30.60;;;;;;2245900;61;20716;-61
2020/12/16 06:48:34;0.00;0.00;0.62;0.00;0.00;0.62;7.07;6.37;;;21.20;30.60;;;;;;2246294;61;20429;-61
2020/12/16 06:51:21;0.00;0.00;0.62;0.00;0.00;0.62;5.73;5.13;;;21.20;30.60;;;;;;2246299;61;20381;-61
2020/12/16 06:54:08;0.00;0.00;0.62;0.00;0.00;0.62;7.53;6.37;;;21.20;30.60;;;;;;2245778;61;20697;-62
2020/12/16 06:57:16;0.00;0.00;0.62;0.00;0.00;0.62;8.13;6.63;;;21.20;30.70;;;;;;2246229;61;20362;-61
2020/12/16 07:00:03;0.00;0.00;0.62;0.00;0.00;0.62;6.30;5.70;;;21.10;30.60;;;;;;2245840;61;20430;-61
2020/12/16 07:02:49;0.00;0.00;0.62;0.00;0.00;0.62;7.87;7.07;;;21.10;30.70;;;;;;2246201;61;20370;-62
2020/12/16 07:05:37;0.00;0.00;0.62;0.00;0.00;0.62;17.83;6.00;;;21.10;30.70;;;;;;2245621;61;20495;-64
2020/12/16 07:08:28;0.00;0.00;0.62;0.00;0.00;0.62;8.97;7.00;;;21.10;30.80;;;;;;2245976;61;20351;-63
2020/12/16 07:11:12;0.00;0.00;0.62;0.00;0.00;0.62;7.50;6.43;;;21.10;30.90;;;;;;2246289;61;20402;-63
2020/12/16 07:14:09;0.00;0.00;0.62;0.00;0.00;0.62;8.70;6.30;;;21.10;30.90;;;;;;2245598;61;20581;-62
2020/12/16 07:17:04;0.00;0.00;0.62;0.00;0.00;0.62;8.17;5.53;;;21.00;31.50;;;;;;2245854;61;20374;-65
2020/12/16 07:19:51;0.00;0.00;0.62;0.00;0.00;0.62;6.60;5.70;;;21.10;30.90;;;;;;2246105;61;20449;-62
2020/12/16 07:22:36;0.00;0.00;0.62;0.00;0.00;0.62;12.17;6.03;;;21.10;30.90;;;;;;2245863;61;20370;-64
2020/12/16 07:25:21;0.00;0.00;0.62;0.00;0.00;0.62;7.70;6.43;;;21.00;30.90;;;;;;2245953;61;20434;-64
2020/12/16 07:28:06;0.00;0.00;0.62;0.00;0.00;0.62;8.07;6.50;;;21.10;31.00;;;;;;2246164;61;20585;-61
2020/12/16 07:30:51;0.00;0.00;0.62;0.00;0.00;0.62;8.40;6.37;;;21.10;31.00;;;;;;2245811;61;20365;-61
2020/12/16 07:33:37;0.00;0.00;0.62;0.00;0.00;0.62;8.90;6.33;;;21.00;30.90;;;;;;2245964;61;20615;-61
2020/12/16 07:36:22;0.00;0.00;0.62;0.00;0.00;0.62;7.00;6.30;;;21.00;30.80;;;;;;2246078;61;20393;-61
2020/12/16 07:39:07;0.00;0.00;0.62;0.00;0.00;0.62;7.10;6.40;;;21.00;30.70;;;;;;2245853;61;20382;-61
2020/12/16 07:41:52;0.00;0.00;0.62;0.00;0.00;0.62;7.83;6.07;;;21.00;30.70;;;;;;2246071;61;20365;-63
2020/12/16 07:44:43;0.00;0.00;0.62;0.00;0.00;0.62;6.37;5.77;;;21.00;30.60;;;;;;2245662;61;20393;-65
2020/12/16 07:47:28;0.00;0.00;0.62;0.00;0.00;0.62;6.80;6.17;;;21.00;31.30;;;;;;2245690;61;20445;-61
2020/12/16 07:50:13;0.00;0.00;0.62;0.00;0.00;0.62;6.53;5.60;;;21.00;30.60;;;;;;2246096;61;20362;-61
2020/12/16 07:52:58;0.00;0.00;0.62;0.00;0.00;0.62;7.67;6.07;;;21.00;30.70;;;;;;2245728;61;20377;-62
2020/12/16 07:55:43;0.00;0.00;0.62;0.00;0.00;0.62;7.37;5.70;;;21.00;30.80;;;;;;2245990;61;20381;-64
2020/12/16 07:58:29;0.00;0.00;0.62;0.00;0.00;0.62;5.67;5.17;;;21.00;30.70;;;;;;2246285;61;20362;-63
2020/12/16 08:01:17;0.00;0.00;0.62;0.00;0.00;0.62;7.57;6.17;;;21.00;30.80;;;;;;2245852;61;20407;-60
2020/12/16 08:04:02;0.00;0.00;0.62;0.00;0.00;0.62;7.40;5.60;;;21.00;30.80;;;;;;2245889;61;20366;-62
2020/12/16 08:06:47;0.00;0.00;0.62;0.00;0.00;0.62;7.00;5.70;;;20.90;30.60;;;;;;2245693;61;20374;-61
2020/12/16 08:09:32;0.00;0.00;0.62;0.00;0.00;0.62;7.23;6.53;;;21.00;30.60;;;;;;2246020;61;20362;-61
2020/12/16 08:12:17;0.00;0.00;0.62;0.00;0.00;0.62;7.63;6.83;;;20.90;30.50;;;;;;2246079;61;20726;-61
2020/12/16 08:15:09;0.00;0.00;0.62;0.00;0.00;0.62;6.57;5.97;;;20.90;30.40;;;;;;2245493;61;20603;-61
2020/12/16 08:17:55;0.00;0.00;0.62;0.00;0.00;0.62;8.10;6.93;;;20.90;30.40;;;;;;2245987;61;20730;-64
2020/12/16 08:20:42;0.00;0.00;0.62;0.00;0.00;0.62;6.67;6.00;;;20.90;30.30;;;;;;2246005;61;20438;-62
2020/12/16 08:23:28;0.00;0.00;0.62;0.00;0.00;0.62;8.00;6.77;;;20.90;30.40;;;;;;2245586;61;20785;-63
2020/12/16 08:26:12;0.00;0.00;0.62;0.00;0.00;0.62;6.20;5.60;;;20.90;30.40;;;;;;2245943;61;20867;-59
2020/12/16 08:29:03;0.00;0.00;0.62;0.00;0.00;0.62;7.70;6.20;;;20.90;30.40;;;;;;2245661;61;20401;-63
2020/12/16 08:31:48;0.00;0.00;0.62;0.00;0.00;0.62;6.53;5.93;;;20.90;30.40;;;;;;2245945;61;20397;-62
2020/12/16 08:34:39;0.00;0.00;0.62;0.00;0.00;0.62;7.70;7.00;;;20.90;30.40;;;;;;2245839;61;20429;-65
2020/12/16 08:37:25;0.00;0.00;0.62;0.00;0.00;0.62;6.87;5.73;;;20.90;30.40;;;;;;2244654;61;20443;-62
2020/12/16 08:40:12;0.00;0.00;0.62;0.00;0.00;0.62;6.57;5.87;;;20.80;30.30;;;;;;2245891;61;20433;-60
2020/12/16 08:43:16;0.00;0.00;0.62;0.00;0.00;0.62;5.83;5.20;;;20.90;30.50;;;;;;2245560;61;20381;-61
2020/12/16 08:46:07;0.00;0.00;0.62;0.00;0.00;0.62;6.50;5.90;;;20.90;31.10;;;;;;2529272;46;20418;-63
2020/12/16 08:48:57;0.00;0.00;0.62;0.00;0.00;0.62;6.57;5.10;;;20.90;30.50;;;;;;2242001;62;20362;-63
2020/12/16 08:51:44;0.00;0.00;0.62;0.00;0.00;0.62;8.40;6.07;;;20.80;31.10;;;;;;2241509;62;20722;-61
2020/12/16 08:54:29;0.00;0.00;0.62;0.00;0.00;0.62;6.10;5.50;;;20.90;30.60;;;;;;2241514;62;20544;-63
2020/12/16 08:57:18;0.00;0.00;0.62;0.00;0.00;0.62;7.27;6.57;;;20.80;30.60;;;;;;2241727;62;20367;-63
2020/12/16 09:00:10;0.00;0.00;0.62;0.00;0.00;0.62;6.07;5.43;;;20.80;30.60;;;;;;2241232;62;20516;-66
2020/12/16 09:03:11;0.00;0.00;0.62;0.00;0.00;0.62;6.87;6.27;;;20.90;30.80;;;;;;2239117;61;20422;-63
2020/12/16 09:06:01;0.00;0.00;0.62;0.00;0.00;0.62;7.07;5.70;;;20.90;30.80;;;;;;2245319;61;20657;-64
2020/12/16 09:08:48;0.00;0.00;0.62;0.00;0.00;0.62;5.80;5.20;;;20.90;30.80;;;;;;2245550;61;20359;-62
2020/12/16 09:12:03;0.00;0.00;0.62;0.00;0.00;0.62;6.47;4.60;;;20.90;30.70;;;;;;2245315;61;20374;-62
2020/12/16 09:15:18;0.00;0.00;0.62;0.00;0.00;0.62;4.73;4.30;;;20.90;30.80;;;;;;2244686;61;20596;-67
2020/12/16 09:18:05;0.00;0.00;0.62;0.00;0.00;0.62;5.00;4.50;;;20.90;30.80;;;;;;2245714;61;20589;-67
2020/12/16 09:20:57;0.00;0.00;0.62;0.00;0.00;0.62;7.50;4.73;;;20.90;30.80;;;;;;2245556;61;20394;-68
2020/12/16 09:23:55;0.00;0.00;0.62;0.00;0.00;0.62;4.87;4.43;;;20.90;30.80;;;;;;2245446;61;20369;-67
2020/12/16 09:26:44;0.00;0.00;0.62;0.00;0.00;0.62;5.90;4.70;;;21.00;30.90;;;;;;2245172;61;20422;-70
2020/12/16 09:29:29;0.00;0.00;0.62;0.00;0.00;0.62;4.97;4.40;;;21.00;30.90;;;;;;2245529;61;20703;-68
2020/12/16 09:32:17;0.00;0.00;0.62;0.00;0.00;0.62;4.57;4.17;;;21.00;30.90;;;;;;2245183;61;20518;-66
2020/12/16 09:35:10;0.00;0.00;0.62;0.00;0.00;0.62;5.30;4.80;;;21.00;30.90;;;;;;2245515;61;20394;-67
2020/12/16 09:37:54;0.00;0.00;0.62;0.00;0.00;0.62;5.70;4.57;;;21.00;31.00;;;;;;2245615;61;20738;-63
2020/12/16 09:40:39;0.00;0.00;0.62;0.00;0.00;0.62;4.17;3.77;;;21.00;31.00;;;;;;2245230;61;20742;-66
2020/12/16 09:43:39;0.00;0.00;0.62;0.00;0.00;0.62;4.80;4.17;;;21.10;31.10;;;;;;2245456;61;20361;-68
2020/12/16 09:46:26;0.00;0.00;0.62;0.00;0.00;0.62;7.13;4.27;;;21.20;31.20;;;;;;2245756;61;20390;-66
2020/12/16 09:49:17;0.00;0.00;0.62;0.00;0.00;0.62;5.00;4.50;;;21.30;31.30;;;;;;2245879;61;20397;-62
2020/12/16 09:52:03;0.00;0.00;0.62;0.00;0.00;0.62;4.27;3.87;;;21.30;31.30;;;;;;2245466;61;20723;-65
2020/12/16 09:54:47;0.00;0.00;0.62;0.00;0.00;0.62;6.90;4.77;;;21.40;31.30;;;;;;2245013;61;20385;-66
2020/12/16 09:57:32;0.00;0.00;0.62;0.00;0.00;0.62;4.67;3.67;;;21.40;31.20;;;;;;2245414;61;20370;-66
2020/12/16 10:00:16;0.00;0.00;0.62;0.00;0.00;0.62;4.00;3.33;;;21.40;31.10;;;;;;2245516;61;20470;-67
2020/12/16 10:03:04;0.00;0.00;0.62;0.00;0.00;0.62;5.30;4.70;;;21.50;31.20;;;;;;2245335;61;20377;-69
2020/12/16 10:05:50;0.00;0.00;0.62;0.00;0.00;0.62;5.90;5.10;;;21.50;31.20;;;;;;2245485;61;20793;-64
2020/12/16 10:08:35;0.00;0.00;0.62;0.00;0.00;0.62;14.00;11.03;;;21.60;31.30;;;;;;2246127;61;20374;-66
2020/12/16 10:11:19;0.00;0.00;0.62;0.00;0.00;0.62;8.77;7.97;;;21.60;31.10;;;;;;2246777;61;20730;-66
2020/12/16 10:14:04;0.00;0.00;0.62;0.00;0.00;0.62;9.47;7.30;;;21.70;31.10;;;;;;2245863;61;20386;-66
2020/12/16 10:16:49;0.00;0.00;0.62;0.00;0.00;0.62;9.80;7.83;;;21.70;31.10;;;;;;2245565;61;20434;-69
2020/12/16 10:19:33;0.00;0.00;0.62;0.00;0.00;0.62;9.60;7.33;;;21.80;31.20;;;;;;2246452;61;20514;-66
2020/12/16 10:22:19;0.00;0.00;0.62;0.00;0.00;0.62;9.70;7.73;;;21.80;31.20;;;;;;2246288;61;20664;-66
2020/12/16 10:25:05;0.00;0.00;0.62;0.00;0.00;0.62;11.00;8.07;;;21.90;31.20;;;;;;2245827;61;20386;-64
2020/12/16 10:27:49;0.00;0.00;0.62;0.00;0.00;0.62;8.30;7.40;;;22.00;31.20;;;;;;2246140;61;20410;-66
2020/12/16 10:30:34;0.00;0.00;0.62;0.00;0.00;0.62;8.80;6.30;;;22.10;31.20;;;;;;2246350;61;20357;-65
2020/12/16 10:33:19;0.00;0.00;0.62;0.00;0.00;0.62;7.90;7.10;;;22.20;31.20;;;;;;2245941;61;20414;-64
2020/12/16 10:36:03;0.00;0.00;0.62;0.00;0.00;0.62;9.90;8.20;;;22.30;31.20;;;;;;2245910;61;20417;-63
2020/12/16 10:38:49;0.00;0.00;0.62;0.00;0.00;0.62;9.57;7.93;;;22.40;31.30;;;;;;2245878;61;20741;-63
2020/12/16 10:41:33;0.00;0.00;0.62;0.00;0.00;0.62;9.63;7.37;;;22.50;31.20;;;;;;2246467;61;20374;-64
2020/12/16 10:44:19;0.00;0.00;0.62;0.00;0.00;0.62;11.97;8.10;;;22.60;31.10;;;;;;2246167;61;20429;-65
2020/12/16 10:47:05;0.00;0.00;0.62;0.00;0.00;0.62;8.43;7.13;;;22.80;31.10;;;;;;2245928;61;20442;-65
2020/12/16 10:49:50;0.00;0.00;0.62;0.00;0.00;0.62;10.53;7.90;;;22.90;31.10;;;;;;2245882;61;20787;-63
2020/12/16 10:52:34;0.00;0.00;0.62;0.00;0.00;0.62;7.50;6.57;;;22.90;30.80;;;;;;2246391;61;20378;-65
2020/12/16 10:55:20;0.00;0.00;0.62;0.00;0.00;0.62;7.77;6.97;;;23.00;30.80;;;;;;2245719;61;20386;-66
2020/12/16 10:58:05;0.00;0.00;0.62;0.00;0.00;0.62;8.80;7.90;;;23.20;30.80;;;;;;2245988;61;20374;-65
2020/12/16 11:00:50;0.00;0.00;0.62;0.00;0.00;0.62;8.23;6.83;;;23.40;30.60;;;;;;2245608;61;20613;-61
2020/12/16 11:03:35;0.00;0.00;0.62;0.00;0.00;0.62;7.90;7.10;;;23.50;30.30;;;;;;2246053;61;20367;-65
2020/12/16 11:06:20;0.00;0.00;0.62;0.00;0.00;0.62;7.53;6.83;;;23.80;30.10;;;;;;2246029;61;20445;-65